Time;durP1;ratioP1;P1;durP2;ratioP2;P2;SDS_P1;SDS_P2;PMS_P1;PMS_P2;Temp;Humidity;BMP_temperature;BMP_pressure;BME280_temperature;BME280_humidity;BME280_pressure;Samples;Min_cycle;Max_cycle;Signal;HPM_P1;HPM_P2
2022/04/29 00:01:09;;;;;;;10.20;8.60;;;;;;;-143.37;100.00;62585.38;5046163;28;20444;-76
2022/04/29 00:03:45;;;;;;;10.30;9.23;;;;;;;-143.37;100.00;62585.38;5048572;28;20793;-76
2022/04/29 00:06:20;;;;;;;9.80;8.80;;;;;;;-143.37;100.00;62585.38;5032844;28;20442;-76
2022/04/29 00:08:56;;;;;;;9.47;8.57;;;;;;;-143.37;100.00;62585.38;5066368;28;20446;-76
2022/04/29 00:11:33;;;;;;;9.57;8.57;;;;;;;-143.37;100.00;62585.38;5061871;28;20512;-77
2022/04/29 00:14:09;;;;;;;8.33;7.60;;;;;;;-143.37;100.00;62585.38;5043382;28;20457;-76
2022/04/29 00:16:45;;;;;;;10.63;9.53;;;;;;;-143.37;100.00;62585.38;5048511;28;20435;-76
2022/04/29 00:19:20;;;;;;;9.03;8.23;;;;;;;-143.37;100.00;62585.38;5061726;28;20462;-76
2022/04/29 00:21:56;;;;;;;9.30;8.40;;;;;;;-143.37;100.00;62585.38;5028284;28;20441;-77
2022/04/29 00:24:32;;;;;;;9.73;8.20;;;;;;;-143.37;100.00;62585.38;5048119;28;20434;-76
2022/04/29 00:27:09;;;;;;;8.43;7.63;;;;;;;-143.37;100.00;62585.38;5031917;28;20441;-76
2022/04/29 00:29:44;;;;;;;10.33;9.20;;;;;;;-143.37;100.00;62585.38;5026510;28;20546;-76
2022/04/29 00:32:20;;;;;;;10.87;9.77;;;;;;;-143.37;100.00;62585.38;5044879;28;20450;-77
2022/04/29 00:34:55;;;;;;;10.30;9.17;;;;;;;-143.37;100.00;62585.38;5046283;28;20437;-76
2022/04/29 00:37:31;;;;;;;10.50;8.83;;;;;;;-143.37;100.00;62585.38;5027651;28;20454;-76
2022/04/29 00:40:08;;;;;;;8.57;7.73;;;;;;;-143.37;100.00;62585.38;5042216;28;20882;-76
2022/04/29 00:42:45;;;;;;;9.30;7.83;;;;;;;-143.37;100.00;62585.38;5044467;28;20944;-76
2022/04/29 00:45:22;;;;;;;9.17;8.17;;;;;;;-143.37;100.00;62585.38;5027734;28;20425;-76
2022/04/29 00:47:58;;;;;;;8.83;7.90;;;;;;;-143.37;100.00;62585.38;5042805;28;20445;-76
2022/04/29 00:50:34;;;;;;;10.10;8.60;;;;;;;-143.37;100.00;62585.38;5030088;28;20437;-76
2022/04/29 00:53:11;;;;;;;10.57;9.17;;;;;;;-143.37;100.00;62585.38;5047676;28;20793;-76
2022/04/29 00:55:47;;;;;;;11.20;10.10;;;;;;;-143.37;100.00;62585.38;5034918;28;20493;-76
2022/04/29 00:58:33;;;;;;;9.67;8.67;;;;;;;-143.37;100.00;62585.38;5047374;28;20474;-76
2022/04/29 01:01:08;;;;;;;11.90;10.80;;;;;;;-143.37;100.00;62585.38;5031827;28;20936;-76
2022/04/29 01:03:51;;;;;;;10.70;9.43;;;;;;;-143.37;100.00;62585.38;5033435;28;20924;-76
2022/04/29 01:06:26;;;;;;;11.40;10.20;;;;;;;-143.37;100.00;62585.38;5049960;28;20446;-76
2022/04/29 01:09:02;;;;;;;10.80;9.67;;;;;;;-143.37;100.00;62585.38;5031961;28;20936;-76
2022/04/29 01:11:39;;;;;;;10.10;9.00;;;;;;;-143.37;100.00;62585.38;5043895;28;20438;-76
2022/04/29 01:14:16;;;;;;;11.57;9.50;;;;;;;-143.37;100.00;62585.38;5031321;28;20430;-76
2022/04/29 01:16:51;;;;;;;9.23;8.43;;;;;;;-143.37;100.00;62585.38;5033118;28;20453;-76
2022/04/29 01:19:27;;;;;;;9.90;8.67;;;;;;;-143.37;100.00;62585.38;5049640;28;20465;-76
2022/04/29 01:22:05;;;;;;;12.03;9.23;;;;;;;-143.37;100.00;62585.38;5032506;28;20445;-76
2022/04/29 01:24:41;;;;;;;10.40;9.03;;;;;;;-143.37;100.00;62585.38;5032379;28;20441;-76
2022/04/29 01:27:16;;;;;;;8.97;8.07;;;;;;;-143.37;100.00;62585.38;5033802;28;20445;-76
2022/04/29 01:29:58;;;;;;;11.63;9.23;;;;;;;-143.37;100.00;62585.38;5025231;28;20438;-76
2022/04/29 01:32:35;;;;;;;9.03;7.93;;;;;;;-143.37;100.00;62585.38;5037250;28;20449;-76
2022/04/29 01:35:12;;;;;;;9.60;8.60;;;;;;;-143.37;100.00;62585.38;5027913;28;20990;-76
2022/04/29 01:37:50;;;;;;;10.43;9.40;;;;;;;-143.37;100.00;62585.38;5037776;28;20449;-76
2022/04/29 01:40:27;;;;;;;10.20;9.20;;;;;;;-143.37;100.00;62585.38;5031501;28;20477;-76
2022/04/29 01:43:03;;;;;;;10.37;9.27;;;;;;;-143.37;100.00;62585.38;5031211;28;20928;-76
2022/04/29 01:45:39;;;;;;;11.23;9.90;;;;;;;-143.37;100.00;62585.38;5051792;28;20776;-76
2022/04/29 01:48:29;;;;;;;11.83;10.63;;;;;;;-143.37;100.00;62585.38;5027237;28;20734;-76
2022/04/29 01:51:23;;;;;;;10.97;9.87;;;;;;;-143.37;100.00;62585.38;5040392;28;20512;-76
2022/04/29 01:54:00;;;;;;;10.23;9.23;;;;;;;-143.37;100.00;62585.38;5038202;28;20940;-76
2022/04/29 01:56:35;;;;;;;10.73;9.73;;;;;;;-143.37;100.00;62585.38;5063707;28;20439;-76
2022/04/29 01:59:12;;;;;;;10.90;9.87;;;;;;;-143.37;100.00;62585.38;5024974;28;20466;-76
2022/04/29 02:02:02;;;;;;;12.23;10.93;;;;;;;-143.37;100.00;62585.38;5035958;28;20434;-76
2022/04/29 02:04:38;;;;;;;11.87;9.13;;;;;;;-143.37;100.00;62585.38;5031925;28;20446;-76
2022/04/29 02:07:14;;;;;;;10.33;9.23;;;;;;;-143.37;100.00;62585.38;5048529;28;20485;-76
2022/04/29 02:09:56;;;;;;;10.50;9.40;;;;;;;-143.37;100.00;62585.38;5033162;28;20458;-76
2022/04/29 02:12:34;;;;;;;10.90;9.47;;;;;;;-143.37;100.00;62585.38;5031720;28;20450;-76
2022/04/29 02:15:30;;;;;;;12.03;10.73;;;;;;;-143.37;100.00;62585.38;5038808;28;20564;-76
2022/04/29 02:18:12;;;;;;;11.77;10.57;;;;;;;-143.37;100.00;62585.38;5041971;28;20458;-76
2022/04/29 02:20:49;;;;;;;10.83;9.73;;;;;;;-143.37;100.00;62585.38;5038054;28;20435;-76
2022/04/29 02:23:27;;;;;;;11.97;10.70;;;;;;;-143.37;100.00;62585.38;5046368;28;20892;-76
2022/04/29 02:26:04;;;;;;;12.63;11.33;;;;;;;-143.37;100.00;62585.38;5045620;28;20443;-76
2022/04/29 02:28:42;;;;;;;10.60;9.60;;;;;;;-143.37;100.00;62585.38;5047027;28;20520;-76
2022/04/29 02:31:17;;;;;;;11.83;10.63;;;;;;;-143.37;100.00;62585.38;5025831;28;20545;-76
2022/04/29 02:33:54;;;;;;;12.13;10.10;;;;;;;-143.37;100.00;62585.38;5032621;28;20450;-76
2022/04/29 02:36:29;;;;;;;11.57;10.47;;;;;;;-143.37;100.00;62585.38;5035826;28;20434;-76
2022/04/29 02:39:06;;;;;;;12.20;10.63;;;;;;;-143.37;100.00;62585.38;5033875;28;20469;-76
2022/04/29 02:41:46;;;;;;;12.37;11.07;;;;;;;-143.37;100.00;62585.38;5050635;28;20442;-76
2022/04/29 02:44:34;;;;;;;10.80;9.63;;;;;;;-143.37;100.00;62585.38;5048772;28;21025;-76
2022/04/29 02:47:10;;;;;;;11.00;10.00;;;;;;;-143.37;100.00;62585.38;5037075;28;20450;-76
2022/04/29 02:49:47;;;;;;;12.43;10.00;;;;;;;-143.37;100.00;62585.38;5048973;28;20444;-76
2022/04/29 02:52:22;;;;;;;11.73;9.60;;;;;;;-143.37;100.00;62585.38;5046837;28;20544;-76
2022/04/29 02:54:58;;;;;;;11.60;10.40;;;;;;;-143.37;100.00;62585.38;5031366;28;20442;-76
2022/04/29 02:57:55;;;;;;;9.60;8.60;;;;;;;-143.37;100.00;62585.38;5049693;28;20450;-76
2022/04/29 03:00:31;;;;;;;10.87;9.77;;;;;;;-143.37;100.00;62585.38;5029487;28;20844;-76
2022/04/29 03:03:06;;;;;;;9.90;8.90;;;;;;;-143.37;100.00;62585.38;5034418;28;20489;-76
2022/04/29 03:05:42;;;;;;;10.27;9.20;;;;;;;-143.37;100.00;62585.38;5045052;28;20545;-76
2022/04/29 03:08:20;;;;;;;12.50;10.40;;;;;;;-143.37;100.00;62585.38;5034384;28;20446;-76
2022/04/29 03:10:55;;;;;;;12.50;11.30;;;;;;;-143.37;100.00;62585.38;5047554;28;20501;-76
2022/04/29 03:13:32;;;;;;;12.40;10.90;;;;;;;-143.37;100.00;62585.38;5052664;28;20540;-76
2022/04/29 03:16:20;;;;;;;11.70;10.50;;;;;;;-143.37;100.00;62585.38;5028217;28;20681;-76
2022/04/29 03:18:56;;;;;;;11.30;10.07;;;;;;;-143.37;100.00;62585.38;5031970;28;20988;-76
2022/04/29 03:21:33;;;;;;;11.97;10.73;;;;;;;-143.37;100.00;62585.38;5033674;28;20453;-76
2022/04/29 03:24:13;;;;;;;12.90;10.20;;;;;;;-143.37;100.00;62585.38;5029242;28;20474;-76
2022/04/29 03:26:49;;;;;;;16.33;11.03;;;;;;;-143.37;100.00;62585.38;5029353;28;20450;-76
2022/04/29 03:29:29;;;;;;;12.17;10.77;;;;;;;-143.37;100.00;62585.38;5041329;28;20793;-76
2022/04/29 03:32:05;;;;;;;12.00;10.33;;;;;;;-143.37;100.00;62585.38;5033364;28;20453;-76
2022/04/29 03:35:04;;;;;;;11.10;10.00;;;;;;;-143.37;100.00;62585.38;5049913;28;20547;-75
2022/04/29 03:37:40;;;;;;;11.60;10.40;;;;;;;-143.37;100.00;62585.38;5030150;28;20554;-74
2022/04/29 03:40:16;;;;;;;12.37;11.17;;;;;;;-143.37;100.00;62585.38;5031589;28;20470;-75
2022/04/29 03:42:56;;;;;;;12.60;10.90;;;;;;;-143.37;100.00;62585.38;5030459;28;20485;-74
2022/04/29 03:45:33;;;;;;;11.07;10.07;;;;;;;-143.37;100.00;62585.38;5028492;28;20499;-75
2022/04/29 03:48:10;;;;;;;12.60;11.20;;;;;;;-143.37;100.00;62585.38;5025849;28;20435;-75
2022/04/29 03:50:53;;;;;;;12.57;10.60;;;;;;;-143.37;100.00;62585.38;5035439;28;20434;-75
2022/04/29 03:53:31;;;;;;;10.50;9.50;;;;;;;-143.37;100.00;62585.38;5028430;28;20457;-75
2022/04/29 03:56:15;;;;;;;11.17;10.03;;;;;;;-143.37;100.00;62585.38;5034745;28;20508;-75
2022/04/29 03:58:54;;;;;;;12.23;11.03;;;;;;;-143.37;100.00;62585.38;5031084;28;20458;-75
2022/04/29 04:01:32;;;;;;;10.60;9.50;;;;;;;-143.37;100.00;62585.38;5047095;28;20442;-75
2022/04/29 04:04:17;;;;;;;12.40;11.10;;;;;;;-143.37;100.00;62585.38;5031659;28;20430;-75
2022/04/29 04:07:00;;;;;;;18.17;15.03;;;;;;;-143.37;100.00;62585.38;5024692;28;20437;-75
2022/04/29 04:10:08;;;;;;;18.13;16.23;;;;;;;-143.37;100.00;62585.38;5046421;28;20568;-75
2022/04/29 04:12:46;;;;;;;13.57;12.27;;;;;;;-143.37;100.00;62585.38;5052017;28;20450;-75
2022/04/29 04:15:49;;;;;;;15.47;12.67;;;;;;;-143.37;100.00;62585.38;5043489;28;20435;-75
2022/04/29 04:18:28;;;;;;;11.83;10.63;;;;;;;-143.37;100.00;62585.38;5044058;28;20466;-74
2022/04/29 04:21:03;;;;;;;11.50;10.30;;;;;;;-143.37;100.00;62585.38;5027963;28;20459;-75
2022/04/29 04:23:39;;;;;;;11.87;10.67;;;;;;;-143.37;100.00;62585.38;5030338;28;20466;-74
2022/04/29 04:26:16;;;;;;;11.60;10.40;;;;;;;-143.37;100.00;62585.38;5025175;28;20442;-74
2022/04/29 04:28:55;;;;;;;12.53;11.23;;;;;;;-143.37;100.00;62585.38;5029419;28;20456;-74
2022/04/29 04:31:30;;;;;;;11.23;10.07;;;;;;;-143.37;100.00;62585.38;5046217;28;20447;-75
2022/04/29 04:36:59;;;;;;;11.20;10.10;;;;;;;-143.37;100.00;62585.38;5020324;28;20435;-74
2022/04/29 04:39:35;;;;;;;12.27;11.07;;;;;;;-143.37;100.00;62585.38;5032961;28;20466;-75
2022/04/29 04:42:16;;;;;;;11.03;9.53;;;;;;;-143.37;100.00;62585.38;5039294;28;20908;-75
2022/04/29 04:44:55;;;;;;;11.87;10.60;;;;;;;-143.37;100.00;62585.38;5032458;28;20835;-75
2022/04/29 04:47:35;;;;;;;12.90;11.27;;;;;;;-143.37;100.00;62585.38;5031779;28;20449;-75
2022/04/29 04:50:31;;;;;;;13.80;11.93;;;;;;;-143.37;100.00;62585.38;5058818;28;20785;-75
2022/04/29 04:53:07;;;;;;;13.37;11.07;;;;;;;-143.37;100.00;62585.38;5030138;28;20473;-74
2022/04/29 04:55:43;;;;;;;12.90;11.50;;;;;;;-143.37;100.00;62585.38;5025665;28;20442;-75
2022/04/29 04:58:18;;;;;;;12.40;11.10;;;;;;;-143.37;100.00;62585.38;5039827;28;20932;-77
2022/04/29 05:00:54;;;;;;;13.20;11.87;;;;;;;-143.37;100.00;62585.38;5054896;28;20564;-76
2022/04/29 05:03:54;;;;;;;14.03;12.10;;;;;;;-143.37;100.00;62585.38;5048756;28;20442;-76
2022/04/29 05:06:55;;;;;;;13.30;11.63;;;;;;;-143.37;100.00;62585.38;5049324;28;20453;-85
2022/04/29 05:09:31;;;;;;;12.70;11.00;;;;;;;-143.37;100.00;62585.38;5034634;28;20427;-77
2022/04/29 05:12:08;;;;;;;11.90;10.30;;;;;;;-143.37;100.00;62585.38;5033859;28;20927;-75
2022/04/29 05:15:09;;;;;;;11.67;10.40;;;;;;;-143.37;100.00;62585.38;5043295;28;20435;-77
2022/04/29 05:17:45;;;;;;;10.83;9.73;;;;;;;-143.37;100.00;62585.38;5036266;28;20907;-77
2022/04/29 05:20:41;;;;;;;13.53;12.07;;;;;;;-143.37;100.00;62585.38;5035927;28;20797;-77
2022/04/29 05:23:19;;;;;;;12.10;10.87;;;;;;;-143.37;100.00;62585.38;5050543;28;20825;-76
2022/04/29 05:26:15;;;;;;;12.70;11.40;;;;;;;-143.37;100.00;62585.38;5050932;28;20782;-76
2022/04/29 05:29:12;;;;;;;13.73;12.37;;;;;;;-143.37;100.00;62585.38;5033203;28;20466;-77
2022/04/29 05:32:08;;;;;;;11.33;10.23;;;;;;;-143.37;100.00;62585.38;5045959;28;20469;-76
2022/04/29 05:35:05;;;;;;;12.40;11.20;;;;;;;-143.37;100.00;62585.38;5048236;28;20447;-77
2022/04/29 05:38:14;;;;;;;12.90;10.20;;;;;;;-143.37;100.00;62585.38;5057658;28;20450;-76
2022/04/29 05:43:44;;;;;;;12.90;11.60;;;;;;;-143.37;100.00;62585.38;5036207;28;20453;-76
2022/04/29 05:46:20;;;;;;;13.00;11.70;;;;;;;-143.37;100.00;62585.38;5032698;28;20445;-76
2022/04/29 05:48:55;;;;;;;11.20;10.10;;;;;;;-143.37;100.00;62585.38;5025942;28;20449;-76
2022/04/29 05:51:31;;;;;;;14.40;11.67;;;;;;;-143.37;100.00;62585.38;5033205;28;20476;-77
2022/04/29 05:54:07;;;;;;;13.07;11.40;;;;;;;-143.37;100.00;62585.38;5037984;28;20536;-76
2022/04/29 05:56:44;;;;;;;13.07;11.40;;;;;;;-143.37;100.00;62585.38;5026203;28;20450;-76
2022/04/29 05:59:22;;;;;;;13.47;10.97;;;;;;;-143.37;100.00;62585.38;5028799;28;20445;-76
2022/04/29 06:02:06;;;;;;;11.40;10.30;;;;;;;-143.37;100.00;62585.38;5031252;28;20442;-77
2022/04/29 06:05:06;;;;;;;12.03;10.83;;;;;;;-143.37;100.00;62585.38;5031584;28;20677;-76
2022/04/29 06:07:45;;;;;;;12.57;11.30;;;;;;;-143.37;100.00;62585.38;5036496;28;21007;-77
2022/04/29 06:10:28;;;;;;;12.20;10.87;;;;;;;-143.37;100.00;62585.38;5040152;28;20540;-76
2022/04/29 06:13:08;;;;;;;13.13;11.60;;;;;;;-143.37;100.00;62585.38;5035845;28;20472;-77
2022/04/29 06:15:57;;;;;;;13.43;11.73;;;;;;;-143.37;100.00;62585.38;5034475;28;20461;-77
2022/04/29 06:18:59;;;;;;;14.60;11.07;;;;;;;-143.37;100.00;62585.38;5048594;28;20485;-75
2022/04/29 06:21:54;;;;;;;12.20;9.90;;;;;;;-143.37;100.00;62585.38;5038909;28;20438;-76
2022/04/29 06:24:31;;;;;;;14.33;10.50;;;;;;;-143.37;100.00;62585.38;5035849;28;20430;-76
2022/04/29 06:27:07;;;;;;;10.60;9.23;;;;;;;-143.37;100.00;62585.38;5030277;28;20447;-75
2022/04/29 06:29:44;;;;;;;10.97;9.70;;;;;;;-143.37;100.00;62585.38;5028513;28;20450;-76
2022/04/29 06:32:20;;;;;;;9.07;8.17;;;;;;;-143.37;100.00;62585.38;5026398;28;20441;-75
2022/04/29 06:35:29;;;;;;;17.43;9.83;;;;;;;-143.37;100.00;62585.38;5010965;28;20451;-76
2022/04/29 06:38:06;;;;;;;10.43;9.43;;;;;;;-143.37;100.00;62585.38;5041634;28;20461;-76
2022/04/29 06:41:02;;;;;;;14.33;9.83;;;;;;;-143.37;100.00;62585.38;5044850;28;20459;-76
2022/04/29 06:43:47;;;;;;;10.40;9.40;;;;;;;-143.37;100.00;62585.38;5044027;28;20515;-76
2022/04/29 06:46:50;;;;;;;12.00;9.70;;;;;;;-143.37;100.00;62585.38;5049927;28;20434;-75
2022/04/29 06:49:44;;;;;;;10.70;9.60;;;;;;;-143.37;100.00;62585.38;5049620;28;20442;-76
2022/04/29 06:52:39;;;;;;;10.90;9.90;;;;;;;-143.37;100.00;62585.38;5048550;28;20529;-75
2022/04/29 06:55:24;;;;;;;11.53;10.33;;;;;;;-143.37;100.00;62585.38;5028332;28;20426;-75
2022/04/29 06:57:59;;;;;;;11.10;10.00;;;;;;;-143.37;100.00;62585.38;5033313;28;20450;-75
2022/04/29 07:00:36;;;;;;;15.53;10.30;;;;;;;-143.37;100.00;62585.38;5033189;28;20470;-76
2022/04/29 07:03:13;;;;;;;12.13;10.93;;;;;;;-143.37;100.00;62585.38;5030506;28;20441;-76
2022/04/29 07:05:52;;;;;;;10.93;9.83;;;;;;;-143.37;100.00;62585.38;5063231;28;20457;-76
2022/04/29 07:08:32;;;;;;;11.47;9.97;;;;;;;-143.37;100.00;62585.38;5032118;28;20443;-76
2022/04/29 07:11:29;;;;;;;10.30;9.30;;;;;;;-143.37;100.00;62585.38;5046030;28;20438;-76
2022/04/29 07:14:17;;;;;;;10.30;9.30;;;;;;;-143.37;100.00;62585.38;5034012;28;20507;-76
2022/04/29 07:17:08;;;;;;;9.80;8.80;;;;;;;-143.37;100.00;62585.38;5032696;28;20792;-76
2022/04/29 07:19:56;;;;;;;9.83;8.93;;;;;;;-143.37;100.00;62585.38;5022368;28;20473;-76
2022/04/29 07:22:32;;;;;;;10.83;8.60;;;;;;;-143.37;100.00;62585.38;5034990;28;20501;-75
2022/04/29 07:25:11;;;;;;;10.57;9.57;;;;;;;-143.37;100.00;62585.38;5030141;28;20975;-76
2022/04/29 07:27:46;;;;;;;9.60;8.60;;;;;;;-143.37;100.00;62585.38;5025596;28;20810;-76
2022/04/29 07:30:22;;;;;;;11.27;10.17;;;;;;;-143.37;100.00;62585.38;5040210;28;20433;-75
2022/04/29 07:33:03;;;;;;;11.60;10.27;;;;;;;-143.37;100.00;62585.38;5034299;28;20461;-75
2022/04/29 07:42:13;;;;;;;10.57;9.20;;;;;;;-143.37;100.00;62585.38;5036915;28;20553;-75
2022/04/29 07:44:49;;;;;;;12.17;9.20;;;;;;;-143.37;100.00;62585.38;5029565;28;20445;-75
2022/04/29 07:47:42;;;;;;;10.47;9.27;;;;;;;-143.37;100.00;62585.38;5035564;28;20477;-75
2022/04/29 07:50:42;;;;;;;13.57;9.80;;;;;;;-143.37;100.00;62585.38;5027261;28;20442;-75
2022/04/29 07:53:20;;;;;;;10.63;9.53;;;;;;;-143.37;100.00;62585.38;5061502;28;20450;-75
2022/04/29 07:55:55;;;;;;;11.03;9.77;;;;;;;-143.37;100.00;62585.38;5030850;28;20461;-75
2022/04/29 07:58:32;;;;;;;9.53;8.63;;;;;;;-143.37;100.00;62585.38;5028861;28;20437;-75
2022/04/29 08:01:09;;;;;;;10.23;9.33;;;;;;;-143.37;100.00;62585.38;5030445;28;20471;-75
2022/04/29 08:03:48;;;;;;;10.70;8.80;;;;;;;-143.37;100.00;62585.38;5030739;28;20461;-76
2022/04/29 08:06:28;;;;;;;10.03;9.03;;;;;;;-143.37;100.00;62585.38;5028777;28;20470;-75
2022/04/29 08:09:05;;;;;;;9.63;8.63;;;;;;;-143.37;100.00;62585.38;5032368;28;20552;-75
2022/04/29 08:11:41;;;;;;;9.23;8.33;;;;;;;-143.37;100.00;62585.38;5029930;28;20958;-75
2022/04/29 08:14:36;;;;;;;10.00;8.90;;;;;;;-143.37;100.00;62585.38;5038586;28;20532;-75
2022/04/29 08:17:40;;;;;;;9.70;8.70;;;;;;;-143.37;100.00;62585.38;5049744;28;20456;-75
2022/04/29 08:20:16;;;;;;;10.43;8.90;;;;;;;-143.37;100.00;62585.38;5040184;28;20512;-75
2022/04/29 08:22:54;;;;;;;10.80;9.70;;;;;;;-143.37;100.00;62585.38;5033705;28;20473;-75
2022/04/29 08:25:32;;;;;;;13.50;9.23;;;;;;;-143.37;100.00;62585.38;5041637;28;20445;-75
2022/04/29 08:28:08;;;;;;;9.77;8.77;;;;;;;-143.37;100.00;62585.38;5029142;28;20445;-76
2022/04/29 08:30:45;;;;;;;10.10;8.90;;;;;;;-143.37;100.00;62585.38;5032232;28;20533;-76
2022/04/29 08:33:24;;;;;;;9.67;8.40;;;;;;;-143.37;100.00;62585.38;5026602;28;20442;-75
2022/04/29 08:36:01;;;;;;;9.23;8.33;;;;;;;-143.37;100.00;62585.38;5026437;28;20827;-76
2022/04/29 08:38:37;;;;;;;9.30;8.40;;;;;;;-143.37;100.00;62585.38;5052757;28;20449;-76
2022/04/29 08:41:13;;;;;;;12.83;9.13;;;;;;;-143.37;100.00;62585.38;5044303;28;20474;-75
2022/04/29 08:43:54;;;;;;;9.83;8.30;;;;;;;-143.37;100.00;62585.38;5031393;28;20464;-76
2022/04/29 08:46:47;;;;;;;13.63;8.90;;;;;;;-143.37;100.00;62585.38;5046322;28;20451;-76
2022/04/29 08:49:46;;;;;;;9.83;8.47;;;;;;;-143.37;100.00;62585.38;5043277;28;20442;-76
2022/04/29 08:52:22;;;;;;;10.30;8.90;;;;;;;-143.37;100.00;62585.38;5027209;28;20462;-76
2022/04/29 09:00:48;;;;;;;9.20;8.30;;;;;;;-143.37;100.00;62585.38;5045612;28;20554;-76
2022/04/29 09:03:27;;;;;;;9.17;8.27;;;;;;;-143.37;100.00;62585.38;5042032;28;20465;-76
2022/04/29 09:06:04;;;;;;;10.00;9.00;;;;;;;-143.37;100.00;62585.38;5046317;28;20772;-76
2022/04/29 09:08:41;;;;;;;9.53;8.63;;;;;;;-143.37;100.00;62585.38;5041444;28;20446;-76
2022/04/29 09:11:22;;;;;;;8.93;8.03;;;;;;;-143.37;100.00;62585.38;5033328;28;20438;-76
2022/04/29 09:13:59;;;;;;;8.90;7.80;;;;;;;-143.37;100.00;62585.38;5034746;28;20474;-76
2022/04/29 09:16:45;;;;;;;9.03;8.23;;;;;;;-143.37;100.00;62585.38;5031658;28;20964;-76
2022/04/29 09:19:31;;;;;;;8.10;7.40;;;;;;;-143.37;100.00;62585.38;5040230;28;20441;-76
2022/04/29 09:22:08;;;;;;;8.10;7.40;;;;;;;-143.37;100.00;62585.38;5042405;28;20565;-76
2022/04/29 09:25:01;;;;;;;9.37;8.47;;;;;;;-143.37;100.00;62585.38;5009740;28;20522;-76
2022/04/29 09:28:07;;;;;;;7.97;7.27;;;;;;;-143.37;100.00;62585.38;5021382;28;20945;-76
2022/04/29 09:31:05;;;;;;;9.43;7.20;;;;;;;-143.37;100.00;62585.38;5011693;28;20439;-76
2022/04/29 09:33:59;;;;;;;10.00;8.03;;;;;;;-143.37;100.00;62585.38;5021692;28;20546;-76
2022/04/29 09:37:14;;;;;;;7.93;7.13;;;;;;;-143.37;100.00;62585.38;5013852;28;20459;-75
2022/04/29 09:39:54;;;;;;;8.20;7.40;;;;;;;-143.37;100.00;62585.38;5023114;28;20467;-74
2022/04/29 09:42:37;;;;;;;8.10;7.30;;;;;;;-143.37;100.00;62585.38;5029333;28;20482;-74
2022/04/29 09:45:13;;;;;;;7.00;6.30;;;;;;;-143.37;100.00;62585.38;5011891;28;20966;-74
2022/04/29 09:47:56;;;;;;;7.10;6.43;;;;;;;-143.37;100.00;62585.38;5009496;28;20549;-75
2022/04/29 09:50:46;;;;;;;7.03;6.43;;;;;;;-143.37;100.00;62585.38;5027477;28;20439;-75
2022/04/29 09:53:23;;;;;;;10.43;7.50;;;;;;;-143.37;100.00;62585.38;5024493;28;20443;-74
2022/04/29 09:56:07;;;;;;;7.73;7.03;;;;;;;-143.37;100.00;62585.38;5022703;28;21021;-74
2022/04/29 09:58:44;;;;;;;8.60;6.63;;;;;;;-143.37;100.00;62585.38;5007413;28;20455;-76
2022/04/29 10:01:20;;;;;;;7.10;6.50;;;;;;;-143.37;100.00;62585.38;5023183;28;20869;-76
2022/04/29 10:03:59;;;;;;;7.50;6.70;;;;;;;-143.37;100.00;62585.38;5024340;28;20438;-76
2022/04/29 10:06:35;;;;;;;6.67;5.90;;;;;;;-143.37;100.00;62585.38;5022799;28;20875;-76
2022/04/29 10:09:12;;;;;;;6.57;5.97;;;;;;;-143.37;100.00;62585.38;5012763;28;20454;-76
2022/04/29 10:11:48;;;;;;;5.90;5.40;;;;;;;-143.37;100.00;62585.38;5043544;28;20438;-77
2022/04/29 10:14:24;;;;;;;9.30;5.50;;;;;;;-143.37;100.00;62585.38;5026209;28;20439;-76
2022/04/29 10:23:15;;;;;;;7.50;5.13;;;;;;;-143.37;100.00;62585.38;5040549;28;21323;-76
2022/04/29 10:25:57;;;;;;;6.77;6.17;;;;;;;-143.37;100.00;62585.38;5060651;28;20437;-76
2022/04/29 10:28:33;;;;;;;5.80;5.20;;;;;;;-143.37;100.00;62585.38;5040616;28;21098;-76
2022/04/29 10:31:09;;;;;;;5.93;5.27;;;;;;;-143.37;100.00;62585.38;5061245;28;20937;-77
2022/04/29 10:33:45;;;;;;;6.10;5.20;;;;;;;-143.37;100.00;62585.38;5067066;28;20477;-77
2022/04/29 10:36:26;;;;;;;6.43;5.30;;;;;;;-143.37;100.00;62585.38;5035164;28;20529;-77
2022/04/29 10:39:02;;;;;;;6.73;5.23;;;;;;;-143.37;100.00;62585.38;5049302;28;20451;-76
2022/04/29 10:41:58;;;;;;;5.80;5.30;;;;;;;-143.37;100.00;62585.38;5038346;28;20783;-74
2022/04/29 10:44:33;;;;;;;5.90;5.40;;;;;;;-143.37;100.00;62585.38;5058054;28;20474;-74
2022/04/29 10:47:38;;;;;;;5.83;5.37;;;;;;;-143.37;100.00;62585.38;5050047;28;20453;-75
2022/04/29 10:50:38;;;;;;;5.90;5.40;;;;;;;-143.37;100.00;62585.38;5049576;28;20525;-75
2022/04/29 10:53:42;;;;;;;5.87;5.37;;;;;;;-143.37;100.00;62585.38;5043872;28;20430;-75
2022/04/29 10:56:38;;;;;;;6.90;5.70;;;;;;;-143.37;100.00;62585.38;5036070;28;20439;-75
2022/04/29 10:59:21;;;;;;;5.70;5.20;;;;;;;-143.37;100.00;62585.38;5031539;28;20449;-75
2022/04/29 11:02:08;;;;;;;6.40;5.90;;;;;;;-143.37;100.00;62585.38;5030296;28;20821;-75
2022/04/29 11:04:55;;;;;;;6.70;6.10;;;;;;;-143.37;100.00;62585.38;5049422;28;20540;-75
2022/04/29 11:07:35;;;;;;;8.20;6.17;;;;;;;-143.37;100.00;62585.38;5047841;28;20446;-74
2022/04/29 11:10:17;;;;;;;5.53;5.03;;;;;;;-143.37;100.00;62585.38;5044707;28;20442;-74
2022/04/29 11:13:03;;;;;;;5.30;4.83;;;;;;;-143.37;100.00;62585.38;5032980;28;20453;-74
2022/04/29 11:16:08;;;;;;;5.50;5.00;;;;;;;-143.37;100.00;62585.38;5047276;28;20438;-74
2022/04/29 11:19:21;;;;;;;6.37;5.77;;;;;;;-143.37;100.00;62585.38;5046315;28;20446;-75
2022/04/29 11:24:54;;;;;;;5.93;5.20;;;;;;;-143.37;100.00;62585.38;5025414;28;20447;-74
2022/04/29 11:28:01;;;;;;;6.20;5.60;;;;;;;-143.37;100.00;62585.38;5039669;28;20516;-74
2022/04/29 11:31:08;;;;;;;6.60;5.80;;;;;;;-143.37;100.00;62585.38;5032209;28;20450;-74
2022/04/29 11:33:46;;;;;;;6.10;5.50;;;;;;;-143.37;100.00;62585.38;5026379;28;20482;-75
2022/04/29 11:36:21;;;;;;;6.50;5.90;;;;;;;-143.37;100.00;62585.38;5040999;28;20430;-74
2022/04/29 11:38:57;;;;;;;6.03;5.53;;;;;;;-143.37;100.00;62585.38;5042294;28;20495;-74
2022/04/29 11:41:33;;;;;;;5.60;5.10;;;;;;;-143.37;100.00;62585.38;5043388;28;20516;-74
2022/04/29 11:44:10;;;;;;;7.27;6.57;;;;;;;-143.37;100.00;62585.38;5041876;28;20495;-76
2022/04/29 11:46:51;;;;;;;7.53;6.80;;;;;;;-143.37;100.00;62585.38;5041020;28;20482;-75
2022/04/29 11:49:32;;;;;;;5.90;5.30;;;;;;;-143.37;100.00;62585.38;5025612;28;20968;-75
2022/04/29 11:52:21;;;;;;;5.80;5.20;;;;;;;-143.37;100.00;62585.38;5039633;28;20442;-75
2022/04/29 11:54:58;;;;;;;6.67;6.00;;;;;;;-143.37;100.00;62585.38;5029016;28;20473;-75
2022/04/29 11:57:35;;;;;;;6.37;5.77;;;;;;;-143.37;100.00;62585.38;5046077;28;20455;-75
2022/04/29 12:00:22;;;;;;;9.00;7.27;;;;;;;-143.37;100.00;62585.38;5049384;28;20445;-76
2022/04/29 12:02:59;;;;;;;7.23;6.53;;;;;;;-143.37;100.00;62585.38;5048361;28;20461;-75
2022/04/29 12:05:35;;;;;;;5.50;5.00;;;;;;;-143.37;100.00;62585.38;5034435;28;20443;-75
2022/04/29 12:08:16;;;;;;;7.33;6.47;;;;;;;-143.37;100.00;62585.38;5044146;28;20450;-75
2022/04/29 12:10:58;;;;;;;7.50;6.80;;;;;;;-143.37;100.00;62585.38;5031630;28;20544;-75
2022/04/29 12:13:36;;;;;;;5.83;5.33;;;;;;;-143.37;100.00;62585.38;5048298;28;20458;-75
2022/04/29 12:16:14;;;;;;;5.80;5.30;;;;;;;-143.37;100.00;62585.38;5032032;28;20438;-75
2022/04/29 12:18:52;;;;;;;6.90;6.33;;;;;;;-143.37;100.00;62585.38;5046290;28;20435;-75
2022/04/29 12:21:28;;;;;;;6.57;6.03;;;;;;;-143.37;100.00;62585.38;5042280;28;20489;-75
2022/04/29 12:24:13;;;;;;;6.27;5.77;;;;;;;-143.37;100.00;62585.38;5047393;28;20465;-75
2022/04/29 12:27:04;;;;;;;6.67;6.07;;;;;;;-143.37;100.00;62585.38;5048421;28;20449;-76
2022/04/29 12:34:48;;;;;;;8.17;7.37;;;;;;;-143.37;100.00;62585.38;5042754;28;20481;-75
2022/04/29 12:35:41;;;;;;;7.10;6.40;;;;;;;-143.37;100.00;62585.38;5046092;28;20457;-76
2022/04/29 12:38:20;;;;;;;7.00;6.33;;;;;;;-143.37;100.00;62585.38;5032529;28;20455;-75